sensor_id;sensor_type;location;lat;lon;timestamp;P1;durP1;ratioP1;P2;durP2;ratioP2
12631;SDS011;6381;45.748;12.106;2023-06-10T00:00:54;15.65;;;14.35;;
12631;SDS011;6381;45.748;12.106;2023-06-10T00:03:24;15.57;;;14.32;;
12631;SDS011;6381;45.748;12.106;2023-06-10T00:05:54;15.73;;;14.40;;
12631;SDS011;6381;45.748;12.106;2023-06-10T00:08:23;15.63;;;14.23;;
12631;SDS011;6381;45.748;12.106;2023-06-10T00:10:53;15.43;;;13.95;;
12631;SDS011;6381;45.748;12.106;2023-06-10T00:13:23;17.73;;;16.13;;
12631;SDS011;6381;45.748;12.106;2023-06-10T00:15:54;17.65;;;16.15;;
12631;SDS011;6381;45.748;12.106;2023-06-10T00:18:24;14.55;;;13.35;;
12631;SDS011;6381;45.748;12.106;2023-06-10T00:20:54;13.52;;;12.10;;
12631;SDS011;6381;45.748;12.106;2023-06-10T00:23:24;13.95;;;12.80;;
12631;SDS011;6381;45.748;12.106;2023-06-10T00:25:56;13.43;;;12.20;;
12631;SDS011;6381;45.748;12.106;2023-06-10T00:28:27;13.70;;;12.50;;
12631;SDS011;6381;45.748;12.106;2023-06-10T00:30:58;12.98;;;11.88;;
12631;SDS011;6381;45.748;12.106;2023-06-10T00:33:28;13.23;;;12.07;;
12631;SDS011;6381;45.748;12.106;2023-06-10T00:35:58;13.73;;;12.63;;
12631;SDS011;6381;45.748;12.106;2023-06-10T00:38:27;15.10;;;13.73;;
12631;SDS011;6381;45.748;12.106;2023-06-10T00:40:57;15.75;;;14.15;;
12631;SDS011;6381;45.748;12.106;2023-06-10T00:43:27;15.48;;;13.88;;
12631;SDS011;6381;45.748;12.106;2023-06-10T00:45:58;15.68;;;14.48;;
12631;SDS011;6381;45.748;12.106;2023-06-10T00:48:29;15.32;;;13.93;;
12631;SDS011;6381;45.748;12.106;2023-06-10T00:50:59;17.13;;;15.63;;
12631;SDS011;6381;45.748;12.106;2023-06-10T00:53:29;16.70;;;15.13;;
12631;SDS011;6381;45.748;12.106;2023-06-10T00:55:59;17.17;;;15.60;;
12631;SDS011;6381;45.748;12.106;2023-06-10T00:58:29;17.67;;;16.00;;
12631;SDS011;6381;45.748;12.106;2023-06-10T01:01:01;17.55;;;15.95;;
12631;SDS011;6381;45.748;12.106;2023-06-10T01:03:31;19.83;;;18.23;;
12631;SDS011;6381;45.748;12.106;2023-06-10T01:06:06;19.02;;;17.42;;
12631;SDS011;6381;45.748;12.106;2023-06-10T01:08:46;19.83;;;17.98;;
12631;SDS011;6381;45.748;12.106;2023-06-10T01:11:23;20.65;;;18.80;;
12631;SDS011;6381;45.748;12.106;2023-06-10T01:13:57;23.20;;;20.73;;
12631;SDS011;6381;45.748;12.106;2023-06-10T01:16:30;24.55;;;22.02;;
12631;SDS011;6381;45.748;12.106;2023-06-10T01:19:00;24.60;;;22.30;;
12631;SDS011;6381;45.748;12.106;2023-06-10T01:21:31;24.25;;;22.10;;
12631;SDS011;6381;45.748;12.106;2023-06-10T01:24:01;23.95;;;21.77;;
12631;SDS011;6381;45.748;12.106;2023-06-10T01:26:35;25.58;;;23.25;;
12631;SDS011;6381;45.748;12.106;2023-06-10T01:29:06;23.25;;;21.23;;
12631;SDS011;6381;45.748;12.106;2023-06-10T01:31:41;23.70;;;21.60;;
12631;SDS011;6381;45.748;12.106;2023-06-10T01:34:19;22.85;;;20.88;;
12631;SDS011;6381;45.748;12.106;2023-06-10T01:36:54;23.27;;;20.90;;
12631;SDS011;6381;45.748;12.106;2023-06-10T01:39:26;23.35;;;21.13;;
12631;SDS011;6381;45.748;12.106;2023-06-10T01:41:57;24.98;;;22.48;;
12631;SDS011;6381;45.748;12.106;2023-06-10T01:44:29;24.90;;;22.48;;
12631;SDS011;6381;45.748;12.106;2023-06-10T01:47:00;25.75;;;23.45;;
12631;SDS011;6381;45.748;12.106;2023-06-10T01:49:30;24.65;;;22.42;;
12631;SDS011;6381;45.748;12.106;2023-06-10T01:52:01;25.88;;;23.67;;
12631;SDS011;6381;45.748;12.106;2023-06-10T01:54:32;25.40;;;23.25;;
12631;SDS011;6381;45.748;12.106;2023-06-10T01:57:02;28.88;;;26.23;;
12631;SDS011;6381;45.748;12.106;2023-06-10T01:59:33;27.63;;;25.25;;
12631;SDS011;6381;45.748;12.106;2023-06-10T02:02:05;28.00;;;25.35;;
12631;SDS011;6381;45.748;12.106;2023-06-10T02:04:35;26.83;;;24.33;;
12631;SDS011;6381;45.748;12.106;2023-06-10T02:07:06;27.73;;;25.42;;
12631;SDS011;6381;45.748;12.106;2023-06-10T02:09:36;27.33;;;25.02;;
12631;SDS011;6381;45.748;12.106;2023-06-10T02:12:06;26.58;;;24.48;;
12631;SDS011;6381;45.748;12.106;2023-06-10T02:14:37;26.25;;;24.00;;
12631;SDS011;6381;45.748;12.106;2023-06-10T02:17:07;28.20;;;25.58;;
12631;SDS011;6381;45.748;12.106;2023-06-10T02:19:41;25.58;;;23.42;;
12631;SDS011;6381;45.748;12.106;2023-06-10T02:22:13;26.58;;;24.25;;
12631;SDS011;6381;45.748;12.106;2023-06-10T02:24:45;24.70;;;22.48;;
12631;SDS011;6381;45.748;12.106;2023-06-10T02:27:15;23.33;;;21.42;;
12631;SDS011;6381;45.748;12.106;2023-06-10T02:29:45;21.80;;;19.90;;
12631;SDS011;6381;45.748;12.106;2023-06-10T02:32:15;23.00;;;20.90;;
12631;SDS011;6381;45.748;12.106;2023-06-10T02:34:45;25.17;;;22.73;;
12631;SDS011;6381;45.748;12.106;2023-06-10T02:37:19;25.98;;;23.48;;
12631;SDS011;6381;45.748;12.106;2023-06-10T02:39:50;25.20;;;23.02;;
12631;SDS011;6381;45.748;12.106;2023-06-10T02:42:20;27.52;;;25.02;;
12631;SDS011;6381;45.748;12.106;2023-06-10T02:44:51;27.58;;;25.13;;
12631;SDS011;6381;45.748;12.106;2023-06-10T02:47:31;23.02;;;20.98;;
12631;SDS011;6381;45.748;12.106;2023-06-10T02:50:02;20.38;;;18.48;;
12631;SDS011;6381;45.748;12.106;2023-06-10T02:52:40;22.70;;;20.60;;
12631;SDS011;6381;45.748;12.106;2023-06-10T02:55:10;21.90;;;20.00;;
12631;SDS011;6381;45.748;12.106;2023-06-10T02:57:46;24.38;;;22.15;;
12631;SDS011;6381;45.748;12.106;2023-06-10T03:00:18;26.27;;;23.83;;
12631;SDS011;6381;45.748;12.106;2023-06-10T03:02:55;27.73;;;25.35;;
12631;SDS011;6381;45.748;12.106;2023-06-10T03:05:32;31.85;;;28.95;;
12631;SDS011;6381;45.748;12.106;2023-06-10T03:08:06;32.08;;;29.02;;
12631;SDS011;6381;45.748;12.106;2023-06-10T03:10:41;34.78;;;31.48;;
12631;SDS011;6381;45.748;12.106;2023-06-10T03:13:15;31.25;;;28.45;;
12631;SDS011;6381;45.748;12.106;2023-06-10T03:15:45;32.17;;;29.17;;
12631;SDS011;6381;45.748;12.106;2023-06-10T03:18:18;31.58;;;28.60;;
12631;SDS011;6381;45.748;12.106;2023-06-10T03:20:48;30.95;;;28.25;;
12631;SDS011;6381;45.748;12.106;2023-06-10T03:23:26;31.05;;;28.23;;
12631;SDS011;6381;45.748;12.106;2023-06-10T03:25:57;29.02;;;26.52;;
12631;SDS011;6381;45.748;12.106;2023-06-10T03:28:32;28.25;;;25.85;;
12631;SDS011;6381;45.748;12.106;2023-06-10T03:31:03;24.52;;;22.52;;
12631;SDS011;6381;45.748;12.106;2023-06-10T03:33:33;21.98;;;20.05;;
12631;SDS011;6381;45.748;12.106;2023-06-10T03:36:05;19.05;;;17.38;;
12631;SDS011;6381;45.748;12.106;2023-06-10T03:38:37;18.10;;;16.63;;
12631;SDS011;6381;45.748;12.106;2023-06-10T03:41:08;18.98;;;17.48;;
12631;SDS011;6381;45.748;12.106;2023-06-10T03:43:40;17.58;;;16.08;;
12631;SDS011;6381;45.748;12.106;2023-06-10T03:46:13;15.60;;;14.15;;
12631;SDS011;6381;45.748;12.106;2023-06-10T03:48:45;16.27;;;14.88;;
12631;SDS011;6381;45.748;12.106;2023-06-10T03:51:15;17.30;;;15.77;;
12631;SDS011;6381;45.748;12.106;2023-06-10T03:53:48;16.80;;;15.40;;
12631;SDS011;6381;45.748;12.106;2023-06-10T03:56:17;16.00;;;14.52;;
12631;SDS011;6381;45.748;12.106;2023-06-10T03:58:48;16.10;;;14.70;;
12631;SDS011;6381;45.748;12.106;2023-06-10T04:01:18;15.77;;;14.38;;
12631;SDS011;6381;45.748;12.106;2023-06-10T04:03:49;15.57;;;14.38;;
12631;SDS011;6381;45.748;12.106;2023-06-10T04:06:21;14.32;;;13.10;;
12631;SDS011;6381;45.748;12.106;2023-06-10T04:08:55;13.93;;;12.63;;
12631;SDS011;6381;45.748;12.106;2023-06-10T04:11:27;13.30;;;12.10;;
12631;SDS011;6381;45.748;12.106;2023-06-10T04:13:57;15.48;;;14.07;;
12631;SDS011;6381;45.748;12.106;2023-06-10T04:16:27;13.48;;;12.13;;
12631;SDS011;6381;45.748;12.106;2023-06-10T04:18:59;16.65;;;12.77;;
12631;SDS011;6381;45.748;12.106;2023-06-10T04:21:29;13.50;;;12.38;;
12631;SDS011;6381;45.748;12.106;2023-06-10T04:24:00;13.93;;;12.63;;
12631;SDS011;6381;45.748;12.106;2023-06-10T04:26:31;17.08;;;14.27;;
12631;SDS011;6381;45.748;12.106;2023-06-10T04:29:01;15.57;;;14.18;;
12631;SDS011;6381;45.748;12.106;2023-06-10T04:31:31;15.95;;;14.55;;
12631;SDS011;6381;45.748;12.106;2023-06-10T04:34:01;17.20;;;15.63;;
12631;SDS011;6381;45.748;12.106;2023-06-10T04:36:31;16.55;;;15.00;;
12631;SDS011;6381;45.748;12.106;2023-06-10T04:39:02;16.85;;;15.40;;
12631;SDS011;6381;45.748;12.106;2023-06-10T04:41:34;18.92;;;17.10;;
12631;SDS011;6381;45.748;12.106;2023-06-10T04:44:04;17.08;;;15.48;;
12631;SDS011;6381;45.748;12.106;2023-06-10T04:46:34;15.85;;;14.35;;
12631;SDS011;6381;45.748;12.106;2023-06-10T04:49:04;15.68;;;14.18;;
12631;SDS011;6381;45.748;12.106;2023-06-10T04:51:33;14.43;;;13.23;;
12631;SDS011;6381;45.748;12.106;2023-06-10T04:54:06;14.90;;;13.60;;
12631;SDS011;6381;45.748;12.106;2023-06-10T04:56:36;15.63;;;14.30;;
12631;SDS011;6381;45.748;12.106;2023-06-10T04:59:06;15.57;;;14.27;;
12631;SDS011;6381;45.748;12.106;2023-06-10T05:01:36;16.40;;;14.80;;
12631;SDS011;6381;45.748;12.106;2023-06-10T05:04:06;15.90;;;14.52;;
12631;SDS011;6381;45.748;12.106;2023-06-10T05:06:36;15.50;;;14.13;;
12631;SDS011;6381;45.748;12.106;2023-06-10T05:09:07;16.17;;;14.77;;
12631;SDS011;6381;45.748;12.106;2023-06-10T05:11:38;17.13;;;15.63;;
12631;SDS011;6381;45.748;12.106;2023-06-10T05:14:08;16.85;;;15.35;;
12631;SDS011;6381;45.748;12.106;2023-06-10T05:16:38;18.02;;;16.33;;
12631;SDS011;6381;45.748;12.106;2023-06-10T05:19:08;16.58;;;15.18;;
12631;SDS011;6381;45.748;12.106;2023-06-10T05:21:38;19.52;;;17.77;;
12631;SDS011;6381;45.748;12.106;2023-06-10T05:24:10;17.60;;;15.90;;
12631;SDS011;6381;45.748;12.106;2023-06-10T05:26:40;17.77;;;16.20;;
12631;SDS011;6381;45.748;12.106;2023-06-10T05:29:09;17.90;;;16.40;;
12631;SDS011;6381;45.748;12.106;2023-06-10T05:31:39;18.17;;;16.50;;
12631;SDS011;6381;45.748;12.106;2023-06-10T05:34:09;17.98;;;16.33;;
12631;SDS011;6381;45.748;12.106;2023-06-10T05:36:40;18.13;;;16.48;;
12631;SDS011;6381;45.748;12.106;2023-06-10T05:39:12;17.48;;;15.77;;
12631;SDS011;6381;45.748;12.106;2023-06-10T05:41:41;17.27;;;15.65;;
12631;SDS011;6381;45.748;12.106;2023-06-10T05:44:11;17.83;;;16.15;;
12631;SDS011;6381;45.748;12.106;2023-06-10T05:46:40;16.38;;;14.75;;
12631;SDS011;6381;45.748;12.106;2023-06-10T05:49:10;17.05;;;15.68;;
12631;SDS011;6381;45.748;12.106;2023-06-10T05:51:40;18.05;;;16.45;;
12631;SDS011;6381;45.748;12.106;2023-06-10T05:54:11;18.02;;;16.42;;
12631;SDS011;6381;45.748;12.106;2023-06-10T05:56:41;17.95;;;16.35;;
12631;SDS011;6381;45.748;12.106;2023-06-10T05:59:11;17.02;;;15.60;;
12631;SDS011;6381;45.748;12.106;2023-06-10T06:01:41;17.85;;;16.05;;
12631;SDS011;6381;45.748;12.106;2023-06-10T06:04:10;17.98;;;16.27;;
12631;SDS011;6381;45.748;12.106;2023-06-10T06:06:40;19.58;;;17.80;;
12631;SDS011;6381;45.748;12.106;2023-06-10T06:09:13;19.30;;;17.50;;
12631;SDS011;6381;45.748;12.106;2023-06-10T06:11:43;19.80;;;18.10;;
12631;SDS011;6381;45.748;12.106;2023-06-10T06:14:13;19.10;;;17.45;;
12631;SDS011;6381;45.748;12.106;2023-06-10T06:16:43;19.75;;;17.95;;
12631;SDS011;6381;45.748;12.106;2023-06-10T06:19:13;22.08;;;20.08;;
12631;SDS011;6381;45.748;12.106;2023-06-10T06:21:45;21.88;;;19.77;;
12631;SDS011;6381;45.748;12.106;2023-06-10T06:24:17;23.75;;;21.60;;
12631;SDS011;6381;45.748;12.106;2023-06-10T06:26:48;24.40;;;22.15;;
12631;SDS011;6381;45.748;12.106;2023-06-10T06:29:17;22.88;;;20.77;;
12631;SDS011;6381;45.748;12.106;2023-06-10T06:31:48;21.77;;;19.85;;
12631;SDS011;6381;45.748;12.106;2023-06-10T06:34:18;23.33;;;21.15;;
12631;SDS011;6381;45.748;12.106;2023-06-10T06:36:48;22.85;;;20.85;;
12631;SDS011;6381;45.748;12.106;2023-06-10T06:39:20;23.65;;;21.35;;
12631;SDS011;6381;45.748;12.106;2023-06-10T06:41:52;23.67;;;21.58;;
12631;SDS011;6381;45.748;12.106;2023-06-10T06:44:39;23.67;;;21.38;;
12631;SDS011;6381;45.748;12.106;2023-06-10T06:47:09;24.48;;;22.30;;
12631;SDS011;6381;45.748;12.106;2023-06-10T06:49:40;23.55;;;21.48;;
12631;SDS011;6381;45.748;12.106;2023-06-10T06:52:10;24.92;;;22.63;;
12631;SDS011;6381;45.748;12.106;2023-06-10T06:54:42;23.17;;;21.00;;
12631;SDS011;6381;45.748;12.106;2023-06-10T06:57:13;22.98;;;20.90;;
12631;SDS011;6381;45.748;12.106;2023-06-10T06:59:43;24.10;;;21.92;;
12631;SDS011;6381;45.748;12.106;2023-06-10T07:02:13;21.55;;;19.45;;
12631;SDS011;6381;45.748;12.106;2023-06-10T07:04:44;22.85;;;20.92;;
12631;SDS011;6381;45.748;12.106;2023-06-10T07:07:16;22.60;;;20.40;;
12631;SDS011;6381;45.748;12.106;2023-06-10T07:09:47;22.35;;;20.35;;
12631;SDS011;6381;45.748;12.106;2023-06-10T07:12:17;23.75;;;21.65;;
12631;SDS011;6381;45.748;12.106;2023-06-10T07:14:51;22.83;;;20.67;;
12631;SDS011;6381;45.748;12.106;2023-06-10T07:17:22;23.55;;;21.45;;
12631;SDS011;6381;45.748;12.106;2023-06-10T07:19:51;22.55;;;20.45;;
12631;SDS011;6381;45.748;12.106;2023-06-10T07:22:25;24.00;;;21.90;;
12631;SDS011;6381;45.748;12.106;2023-06-10T07:24:57;22.52;;;20.52;;
12631;SDS011;6381;45.748;12.106;2023-06-10T07:27:28;21.98;;;20.08;;
12631;SDS011;6381;45.748;12.106;2023-06-10T07:30:00;21.83;;;19.67;;
12631;SDS011;6381;45.748;12.106;2023-06-10T07:32:35;25.35;;;22.55;;
12631;SDS011;6381;45.748;12.106;2023-06-10T07:35:13;21.52;;;19.52;;
12631;SDS011;6381;45.748;12.106;2023-06-10T07:37:45;23.42;;;21.27;;
12631;SDS011;6381;45.748;12.106;2023-06-10T07:40:18;20.83;;;18.83;;
12631;SDS011;6381;45.748;12.106;2023-06-10T07:42:49;22.63;;;20.52;;
12631;SDS011;6381;45.748;12.106;2023-06-10T07:45:21;21.95;;;19.92;;
12631;SDS011;6381;45.748;12.106;2023-06-10T07:47:53;23.88;;;21.77;;
12631;SDS011;6381;45.748;12.106;2023-06-10T07:50:25;21.58;;;19.67;;
12631;SDS011;6381;45.748;12.106;2023-06-10T07:52:55;25.58;;;23.27;;
12631;SDS011;6381;45.748;12.106;2023-06-10T07:55:31;23.13;;;21.10;;
12631;SDS011;6381;45.748;12.106;2023-06-10T07:58:02;23.42;;;21.25;;
12631;SDS011;6381;45.748;12.106;2023-06-10T08:00:46;24.85;;;22.65;;
12631;SDS011;6381;45.748;12.106;2023-06-10T08:03:26;22.13;;;20.17;;
12631;SDS011;6381;45.748;12.106;2023-06-10T08:05:58;24.30;;;22.10;;
12631;SDS011;6381;45.748;12.106;2023-06-10T08:18:34;24.20;;;22.00;;
12631;SDS011;6381;45.748;12.106;2023-06-10T08:21:03;20.15;;;18.35;;
12631;SDS011;6381;45.748;12.106;2023-06-10T08:23:32;19.60;;;17.77;;
12631;SDS011;6381;45.748;12.106;2023-06-10T08:26:02;20.80;;;19.00;;
12631;SDS011;6381;45.748;12.106;2023-06-10T08:28:30;20.83;;;19.02;;
12631;SDS011;6381;45.748;12.106;2023-06-10T08:30:59;22.05;;;19.77;;
12631;SDS011;6381;45.748;12.106;2023-06-10T08:33:28;23.98;;;20.67;;
12631;SDS011;6381;45.748;12.106;2023-06-10T08:35:58;22.63;;;20.65;;
12631;SDS011;6381;45.748;12.106;2023-06-10T08:38:27;20.70;;;18.90;;
12631;SDS011;6381;45.748;12.106;2023-06-10T08:40:56;21.55;;;19.65;;
12631;SDS011;6381;45.748;12.106;2023-06-10T08:43:30;19.95;;;18.05;;
12631;SDS011;6381;45.748;12.106;2023-06-10T08:46:02;21.70;;;19.80;;
12631;SDS011;6381;45.748;12.106;2023-06-10T08:48:31;22.45;;;20.30;;
12631;SDS011;6381;45.748;12.106;2023-06-10T08:51:09;22.45;;;20.45;;
12631;SDS011;6381;45.748;12.106;2023-06-10T08:53:46;22.00;;;19.98;;
12631;SDS011;6381;45.748;12.106;2023-06-10T08:56:19;22.42;;;20.17;;
12631;SDS011;6381;45.748;12.106;2023-06-10T08:58:50;19.00;;;17.10;;
12631;SDS011;6381;45.748;12.106;2023-06-10T09:01:19;19.98;;;18.17;;
12631;SDS011;6381;45.748;12.106;2023-06-10T09:03:49;18.38;;;16.58;;
12631;SDS011;6381;45.748;12.106;2023-06-10T09:06:19;22.33;;;20.13;;
12631;SDS011;6381;45.748;12.106;2023-06-10T09:08:48;20.02;;;18.25;;
12631;SDS011;6381;45.748;12.106;2023-06-10T09:11:18;17.95;;;16.33;;
12631;SDS011;6381;45.748;12.106;2023-06-10T09:13:47;17.90;;;16.17;;
12631;SDS011;6381;45.748;12.106;2023-06-10T09:16:15;17.33;;;15.70;;
12631;SDS011;6381;45.748;12.106;2023-06-10T09:18:47;17.70;;;16.00;;
12631;SDS011;6381;45.748;12.106;2023-06-10T09:21:23;17.17;;;15.52;;
12631;SDS011;6381;45.748;12.106;2023-06-10T09:23:52;17.08;;;15.50;;
12631;SDS011;6381;45.748;12.106;2023-06-10T09:26:26;15.35;;;14.00;;
12631;SDS011;6381;45.748;12.106;2023-06-10T09:29:02;14.23;;;12.93;;
12631;SDS011;6381;45.748;12.106;2023-06-10T09:31:32;13.40;;;12.15;;
12631;SDS011;6381;45.748;12.106;2023-06-10T09:34:07;13.18;;;11.85;;
12631;SDS011;6381;45.748;12.106;2023-06-10T09:36:39;12.20;;;11.10;;
12631;SDS011;6381;45.748;12.106;2023-06-10T09:39:13;13.45;;;12.20;;
12631;SDS011;6381;45.748;12.106;2023-06-10T09:41:44;12.43;;;11.38;;
12631;SDS011;6381;45.748;12.106;2023-06-10T09:44:14;12.65;;;11.38;;
12631;SDS011;6381;45.748;12.106;2023-06-10T09:46:44;15.35;;;14.05;;
12631;SDS011;6381;45.748;12.106;2023-06-10T09:49:14;13.55;;;12.35;;
12631;SDS011;6381;45.748;12.106;2023-06-10T09:51:50;12.50;;;11.38;;
12631;SDS011;6381;45.748;12.106;2023-06-10T09:54:20;14.43;;;13.07;;
12631;SDS011;6381;45.748;12.106;2023-06-10T09:56:50;14.23;;;12.75;;
12631;SDS011;6381;45.748;12.106;2023-06-10T09:59:27;12.85;;;11.70;;
12631;SDS011;6381;45.748;12.106;2023-06-10T10:01:58;12.10;;;11.00;;
12631;SDS011;6381;45.748;12.106;2023-06-10T10:04:28;13.88;;;12.48;;
12631;SDS011;6381;45.748;12.106;2023-06-10T10:06:58;10.93;;;10.02;;
12631;SDS011;6381;45.748;12.106;2023-06-10T10:09:27;11.80;;;10.70;;
12631;SDS011;6381;45.748;12.106;2023-06-10T10:11:56;10.95;;;9.95;;
12631;SDS011;6381;45.748;12.106;2023-06-10T10:14:27;12.65;;;11.35;;
12631;SDS011;6381;45.748;12.106;2023-06-10T10:16:58;13.77;;;12.57;;
12631;SDS011;6381;45.748;12.106;2023-06-10T10:19:31;13.43;;;11.93;;
12631;SDS011;6381;45.748;12.106;2023-06-10T10:22:06;12.00;;;11.00;;
12631;SDS011;6381;45.748;12.106;2023-06-10T10:24:38;12.75;;;11.40;;
12631;SDS011;6381;45.748;12.106;2023-06-10T10:27:17;11.38;;;10.38;;
12631;SDS011;6381;45.748;12.106;2023-06-10T10:29:50;13.18;;;11.98;;
12631;SDS011;6381;45.748;12.106;2023-06-10T10:32:22;11.63;;;10.63;;
12631;SDS011;6381;45.748;12.106;2023-06-10T10:34:56;12.50;;;11.30;;
12631;SDS011;6381;45.748;12.106;2023-06-10T10:37:34;13.52;;;12.23;;
12631;SDS011;6381;45.748;12.106;2023-06-10T10:40:04;15.02;;;13.52;;
12631;SDS011;6381;45.748;12.106;2023-06-10T10:42:34;13.70;;;12.15;;
12631;SDS011;6381;45.748;12.106;2023-06-10T10:45:04;13.77;;;12.27;;
12631;SDS011;6381;45.748;12.106;2023-06-10T10:47:35;12.40;;;11.20;;
12631;SDS011;6381;45.748;12.106;2023-06-10T10:50:12;14.50;;;13.27;;
12631;SDS011;6381;45.748;12.106;2023-06-10T10:52:50;12.75;;;11.60;;
12631;SDS011;6381;45.748;12.106;2023-06-10T10:55:21;15.50;;;13.85;;
12631;SDS011;6381;45.748;12.106;2023-06-10T10:57:54;17.73;;;16.15;;
12631;SDS011;6381;45.748;12.106;2023-06-10T11:00:27;16.25;;;14.70;;
12631;SDS011;6381;45.748;12.106;2023-06-10T11:02:58;16.92;;;15.32;;
12631;SDS011;6381;45.748;12.106;2023-06-10T11:05:36;15.00;;;13.57;;
12631;SDS011;6381;45.748;12.106;2023-06-10T11:08:08;14.30;;;12.98;;
12631;SDS011;6381;45.748;12.106;2023-06-10T11:10:37;18.35;;;16.67;;
12631;SDS011;6381;45.748;12.106;2023-06-10T11:13:09;18.52;;;16.80;;
12631;SDS011;6381;45.748;12.106;2023-06-10T11:15:43;17.35;;;15.65;;
12631;SDS011;6381;45.748;12.106;2023-06-10T11:18:23;17.45;;;15.77;;
12631;SDS011;6381;45.748;12.106;2023-06-10T11:20:53;14.60;;;13.27;;
12631;SDS011;6381;45.748;12.106;2023-06-10T11:23:32;14.00;;;12.70;;
12631;SDS011;6381;45.748;12.106;2023-06-10T11:26:09;13.63;;;12.43;;
12631;SDS011;6381;45.748;12.106;2023-06-10T11:28:42;13.63;;;12.30;;
12631;SDS011;6381;45.748;12.106;2023-06-10T11:31:30;12.63;;;11.43;;
12631;SDS011;6381;45.748;12.106;2023-06-10T11:34:01;13.38;;;12.18;;
12631;SDS011;6381;45.748;12.106;2023-06-10T11:36:32;14.88;;;13.48;;
12631;SDS011;6381;45.748;12.106;2023-06-10T11:39:05;12.38;;;11.18;;
12631;SDS011;6381;45.748;12.106;2023-06-10T11:41:34;12.70;;;11.50;;
12631;SDS011;6381;45.748;12.106;2023-06-10T11:44:07;15.38;;;13.82;;
12631;SDS011;6381;45.748;12.106;2023-06-10T11:46:37;15.48;;;13.95;;
12631;SDS011;6381;45.748;12.106;2023-06-10T11:49:09;16.85;;;14.80;;
12631;SDS011;6381;45.748;12.106;2023-06-10T11:51:40;17.33;;;15.63;;
12631;SDS011;6381;45.748;12.106;2023-06-10T11:54:17;18.88;;;16.98;;
12631;SDS011;6381;45.748;12.106;2023-06-10T11:56:47;23.23;;;20.80;;
12631;SDS011;6381;45.748;12.106;2023-06-10T11:59:16;22.27;;;20.20;;
12631;SDS011;6381;45.748;12.106;2023-06-10T12:01:47;22.38;;;20.13;;
12631;SDS011;6381;45.748;12.106;2023-06-10T12:04:16;26.63;;;23.92;;
12631;SDS011;6381;45.748;12.106;2023-06-10T12:06:46;23.00;;;20.75;;
12631;SDS011;6381;45.748;12.106;2023-06-10T12:09:21;23.00;;;20.75;;
12631;SDS011;6381;45.748;12.106;2023-06-10T12:11:55;25.55;;;23.02;;
12631;SDS011;6381;45.748;12.106;2023-06-10T12:17:35;29.70;;;26.67;;
12631;SDS011;6381;45.748;12.106;2023-06-10T12:20:06;27.58;;;24.77;;
12631;SDS011;6381;45.748;12.106;2023-06-10T12:22:36;30.05;;;27.10;;
12631;SDS011;6381;45.748;12.106;2023-06-10T12:25:08;30.52;;;27.48;;
12631;SDS011;6381;45.748;12.106;2023-06-10T12:27:39;29.67;;;26.67;;
12631;SDS011;6381;45.748;12.106;2023-06-10T12:30:18;26.83;;;24.23;;
12631;SDS011;6381;45.748;12.106;2023-06-10T12:32:48;27.52;;;24.80;;
12631;SDS011;6381;45.748;12.106;2023-06-10T12:35:19;26.70;;;24.20;;
12631;SDS011;6381;45.748;12.106;2023-06-10T12:37:54;25.50;;;23.00;;
12631;SDS011;6381;45.748;12.106;2023-06-10T12:40:29;26.40;;;23.77;;
12631;SDS011;6381;45.748;12.106;2023-06-10T12:42:59;23.35;;;21.08;;
12631;SDS011;6381;45.748;12.106;2023-06-10T12:45:28;21.88;;;19.63;;
12631;SDS011;6381;45.748;12.106;2023-06-10T12:48:05;24.25;;;22.05;;
12631;SDS011;6381;45.748;12.106;2023-06-10T12:50:36;22.00;;;19.92;;
12631;SDS011;6381;45.748;12.106;2023-06-10T12:53:06;19.65;;;17.80;;
12631;SDS011;6381;45.748;12.106;2023-06-10T12:55:38;19.50;;;17.73;;
12631;SDS011;6381;45.748;12.106;2023-06-10T12:58:07;22.48;;;20.27;;
12631;SDS011;6381;45.748;12.106;2023-06-10T13:00:36;22.58;;;20.58;;
12631;SDS011;6381;45.748;12.106;2023-06-10T13:03:04;23.05;;;20.90;;
12631;SDS011;6381;45.748;12.106;2023-06-10T13:05:34;22.13;;;20.02;;
12631;SDS011;6381;45.748;12.106;2023-06-10T13:08:06;22.85;;;20.45;;
12631;SDS011;6381;45.748;12.106;2023-06-10T13:10:38;20.05;;;18.15;;
12631;SDS011;6381;45.748;12.106;2023-06-10T13:13:07;22.33;;;20.17;;
12631;SDS011;6381;45.748;12.106;2023-06-10T13:15:36;20.58;;;18.70;;
12631;SDS011;6381;45.748;12.106;2023-06-10T13:18:09;20.63;;;18.83;;
12631;SDS011;6381;45.748;12.106;2023-06-10T13:20:38;23.13;;;20.88;;
12631;SDS011;6381;45.748;12.106;2023-06-10T13:23:07;21.10;;;19.20;;
12631;SDS011;6381;45.748;12.106;2023-06-10T13:25:37;22.98;;;20.83;;
12631;SDS011;6381;45.748;12.106;2023-06-10T13:28:07;20.63;;;18.83;;
12631;SDS011;6381;45.748;12.106;2023-06-10T13:30:36;22.40;;;20.30;;
12631;SDS011;6381;45.748;12.106;2023-06-10T13:33:05;21.98;;;19.90;;
12631;SDS011;6381;45.748;12.106;2023-06-10T13:35:34;21.38;;;19.33;;
12631;SDS011;6381;45.748;12.106;2023-06-10T13:38:02;23.25;;;21.02;;
12631;SDS011;6381;45.748;12.106;2023-06-10T13:40:31;20.55;;;18.38;;
12631;SDS011;6381;45.748;12.106;2023-06-10T13:43:01;21.48;;;19.58;;
12631;SDS011;6381;45.748;12.106;2023-06-10T13:45:30;19.23;;;17.40;;
12631;SDS011;6381;45.748;12.106;2023-06-10T13:47:59;19.42;;;17.67;;
12631;SDS011;6381;45.748;12.106;2023-06-10T13:50:28;20.55;;;18.63;;
12631;SDS011;6381;45.748;12.106;2023-06-10T13:52:57;18.08;;;16.23;;
12631;SDS011;6381;45.748;12.106;2023-06-10T13:55:29;17.60;;;15.77;;
12631;SDS011;6381;45.748;12.106;2023-06-10T13:57:58;14.90;;;13.60;;
12631;SDS011;6381;45.748;12.106;2023-06-10T14:00:29;17.20;;;15.60;;
12631;SDS011;6381;45.748;12.106;2023-06-10T14:02:58;15.32;;;13.93;;
12631;SDS011;6381;45.748;12.106;2023-06-10T14:05:27;20.13;;;18.23;;
12631;SDS011;6381;45.748;12.106;2023-06-10T14:07:57;18.42;;;16.17;;
12631;SDS011;6381;45.748;12.106;2023-06-10T14:10:26;15.90;;;14.40;;
12631;SDS011;6381;45.748;12.106;2023-06-10T14:12:55;19.25;;;17.45;;
12631;SDS011;6381;45.748;12.106;2023-06-10T14:15:24;19.20;;;17.40;;
12631;SDS011;6381;45.748;12.106;2023-06-10T14:17:54;18.38;;;16.33;;
12631;SDS011;6381;45.748;12.106;2023-06-10T14:20:23;19.33;;;17.52;;
12631;SDS011;6381;45.748;12.106;2023-06-10T14:22:53;19.15;;;17.35;;
12631;SDS011;6381;45.748;12.106;2023-06-10T14:25:22;18.70;;;17.00;;
12631;SDS011;6381;45.748;12.106;2023-06-10T14:27:51;16.60;;;14.93;;
12631;SDS011;6381;45.748;12.106;2023-06-10T14:30:19;18.35;;;16.70;;
12631;SDS011;6381;45.748;12.106;2023-06-10T14:32:48;16.10;;;14.60;;
12631;SDS011;6381;45.748;12.106;2023-06-10T14:35:19;21.60;;;17.75;;
12631;SDS011;6381;45.748;12.106;2023-06-10T14:37:48;22.45;;;20.52;;
12631;SDS011;6381;45.748;12.106;2023-06-10T14:40:17;21.08;;;19.00;;
12631;SDS011;6381;45.748;12.106;2023-06-10T14:42:48;19.85;;;18.05;;
12631;SDS011;6381;45.748;12.106;2023-06-10T14:45:16;17.25;;;15.55;;
12631;SDS011;6381;45.748;12.106;2023-06-10T14:47:45;17.48;;;15.93;;
12631;SDS011;6381;45.748;12.106;2023-06-10T14:50:15;16.35;;;14.75;;
12631;SDS011;6381;45.748;12.106;2023-06-10T14:52:45;17.70;;;16.00;;
12631;SDS011;6381;45.748;12.106;2023-06-10T14:55:14;19.50;;;17.60;;
12631;SDS011;6381;45.748;12.106;2023-06-10T14:57:43;17.42;;;15.73;;